sensor_id;sensor_type;location;lat;lon;timestamp;temperature;humidity
62809;DHT22;48848;39.002;-94.584;2022-10-16T00:01:13;18.70;45.10
62809;DHT22;48848;39.002;-94.584;2022-10-16T00:03:39;18.70;45.20
62809;DHT22;48848;39.002;-94.584;2022-10-16T00:06:07;18.60;45.10
62809;DHT22;48848;39.002;-94.584;2022-10-16T00:08:34;18.70;45.10
62809;DHT22;48848;39.002;-94.584;2022-10-16T00:11:03;18.70;45.00
62809;DHT22;48848;39.002;-94.584;2022-10-16T00:13:31;18.70;45.00
62809;DHT22;48848;39.002;-94.584;2022-10-16T00:15:58;18.70;44.90
62809;DHT22;48848;39.002;-94.584;2022-10-16T00:18:25;18.70;44.90
62809;DHT22;48848;39.002;-94.584;2022-10-16T00:20:52;18.70;45.00
62809;DHT22;48848;39.002;-94.584;2022-10-16T00:23:18;18.70;44.90
62809;DHT22;48848;39.002;-94.584;2022-10-16T00:25:45;18.70;44.70
62809;DHT22;48848;39.002;-94.584;2022-10-16T00:28:19;18.70;44.90
62809;DHT22;48848;39.002;-94.584;2022-10-16T00:30:46;18.70;45.10
62809;DHT22;48848;39.002;-94.584;2022-10-16T00:33:12;18.70;45.20
62809;DHT22;48848;39.002;-94.584;2022-10-16T00:35:38;18.70;45.10
62809;DHT22;48848;39.002;-94.584;2022-10-16T00:38:04;18.70;44.90
62809;DHT22;48848;39.002;-94.584;2022-10-16T00:40:30;18.70;45.00
62809;DHT22;48848;39.002;-94.584;2022-10-16T00:42:57;18.70;44.90
62809;DHT22;48848;39.002;-94.584;2022-10-16T00:45:24;18.70;45.00
62809;DHT22;48848;39.002;-94.584;2022-10-16T00:47:52;18.70;44.60
62809;DHT22;48848;39.002;-94.584;2022-10-16T00:52:50;18.70;44.40
62809;DHT22;48848;39.002;-94.584;2022-10-16T00:55:17;18.70;44.50
62809;DHT22;48848;39.002;-94.584;2022-10-16T00:57:45;18.70;44.60
62809;DHT22;48848;39.002;-94.584;2022-10-16T01:00:16;18.70;44.60
62809;DHT22;48848;39.002;-94.584;2022-10-16T01:02:43;18.70;44.30
62809;DHT22;48848;39.002;-94.584;2022-10-16T01:05:09;18.70;44.40
62809;DHT22;48848;39.002;-94.584;2022-10-16T01:10:26;18.70;44.70
62809;DHT22;48848;39.002;-94.584;2022-10-16T01:15:41;18.70;44.60
62809;DHT22;48848;39.002;-94.584;2022-10-16T01:18:15;18.70;44.30
62809;DHT22;48848;39.002;-94.584;2022-10-16T01:21:01;18.70;44.30
62809;DHT22;48848;39.002;-94.584;2022-10-16T01:32:16;18.70;44.80
62809;DHT22;48848;39.002;-94.584;2022-10-16T01:34:51;18.70;44.70
62809;DHT22;48848;39.002;-94.584;2022-10-16T01:37:36;18.70;44.50
62809;DHT22;48848;39.002;-94.584;2022-10-16T01:40:08;18.70;44.70
62809;DHT22;48848;39.002;-94.584;2022-10-16T01:42:41;18.70;44.70
62809;DHT22;48848;39.002;-94.584;2022-10-16T01:45:10;18.70;44.70
62809;DHT22;48848;39.002;-94.584;2022-10-16T01:47:39;18.70;44.60
62809;DHT22;48848;39.002;-94.584;2022-10-16T01:50:08;18.70;44.90
62809;DHT22;48848;39.002;-94.584;2022-10-16T01:52:40;18.60;44.80
62809;DHT22;48848;39.002;-94.584;2022-10-16T01:55:09;18.70;44.50
62809;DHT22;48848;39.002;-94.584;2022-10-16T01:57:39;18.70;44.60
62809;DHT22;48848;39.002;-94.584;2022-10-16T02:00:11;18.70;44.60
62809;DHT22;48848;39.002;-94.584;2022-10-16T02:02:40;18.70;44.50
62809;DHT22;48848;39.002;-94.584;2022-10-16T02:05:20;18.60;44.50
62809;DHT22;48848;39.002;-94.584;2022-10-16T02:07:48;18.60;44.40
62809;DHT22;48848;39.002;-94.584;2022-10-16T02:10:14;18.60;44.30
62809;DHT22;48848;39.002;-94.584;2022-10-16T02:12:44;18.60;44.60
62809;DHT22;48848;39.002;-94.584;2022-10-16T02:15:11;18.60;44.40
62809;DHT22;48848;39.002;-94.584;2022-10-16T02:17:37;18.60;44.40
62809;DHT22;48848;39.002;-94.584;2022-10-16T02:20:05;18.60;43.90
62809;DHT22;48848;39.002;-94.584;2022-10-16T02:22:35;18.60;44.30
62809;DHT22;48848;39.002;-94.584;2022-10-16T02:30:40;18.60;44.40
62809;DHT22;48848;39.002;-94.584;2022-10-16T02:33:10;18.60;44.50
62809;DHT22;48848;39.002;-94.584;2022-10-16T02:35:40;18.60;44.60
62809;DHT22;48848;39.002;-94.584;2022-10-16T02:38:08;18.60;44.70
62809;DHT22;48848;39.002;-94.584;2022-10-16T02:40:36;18.60;44.70
62809;DHT22;48848;39.002;-94.584;2022-10-16T02:43:04;18.60;44.90
62809;DHT22;48848;39.002;-94.584;2022-10-16T02:45:30;18.60;44.50
62809;DHT22;48848;39.002;-94.584;2022-10-16T02:47:58;18.50;44.60
62809;DHT22;48848;39.002;-94.584;2022-10-16T02:50:24;18.60;44.60
62809;DHT22;48848;39.002;-94.584;2022-10-16T02:52:51;18.60;44.50
62809;DHT22;48848;39.002;-94.584;2022-10-16T02:55:17;18.60;44.60
62809;DHT22;48848;39.002;-94.584;2022-10-16T02:57:43;18.50;44.50
62809;DHT22;48848;39.002;-94.584;2022-10-16T03:00:13;18.50;45.60
62809;DHT22;48848;39.002;-94.584;2022-10-16T03:02:39;18.50;44.50
62809;DHT22;48848;39.002;-94.584;2022-10-16T03:05:06;18.50;44.70
62809;DHT22;48848;39.002;-94.584;2022-10-16T03:07:33;18.50;44.80
62809;DHT22;48848;39.002;-94.584;2022-10-16T03:09:59;18.50;44.50
62809;DHT22;48848;39.002;-94.584;2022-10-16T03:12:29;18.50;44.50
62809;DHT22;48848;39.002;-94.584;2022-10-16T03:14:56;18.50;43.90
62809;DHT22;48848;39.002;-94.584;2022-10-16T03:17:23;18.50;44.20
62809;DHT22;48848;39.002;-94.584;2022-10-16T03:19:49;18.50;44.30
62809;DHT22;48848;39.002;-94.584;2022-10-16T03:22:15;18.50;44.50
62809;DHT22;48848;39.002;-94.584;2022-10-16T03:24:41;18.50;44.00
62809;DHT22;48848;39.002;-94.584;2022-10-16T03:27:07;18.50;44.20
62809;DHT22;48848;39.002;-94.584;2022-10-16T03:29:34;18.50;44.10
62809;DHT22;48848;39.002;-94.584;2022-10-16T03:32:00;18.50;44.20
62809;DHT22;48848;39.002;-94.584;2022-10-16T03:34:27;18.50;44.00
62809;DHT22;48848;39.002;-94.584;2022-10-16T03:36:53;18.40;44.10
62809;DHT22;48848;39.002;-94.584;2022-10-16T03:39:19;18.40;43.90
62809;DHT22;48848;39.002;-94.584;2022-10-16T03:41:46;18.40;44.50
62809;DHT22;48848;39.002;-94.584;2022-10-16T03:44:12;18.40;44.20
62809;DHT22;48848;39.002;-94.584;2022-10-16T03:46:39;18.40;44.00
62809;DHT22;48848;39.002;-94.584;2022-10-16T03:49:05;18.40;44.20
62809;DHT22;48848;39.002;-94.584;2022-10-16T03:51:31;18.40;44.00
62809;DHT22;48848;39.002;-94.584;2022-10-16T03:53:57;18.40;44.20
62809;DHT22;48848;39.002;-94.584;2022-10-16T03:56:23;18.40;44.20
62809;DHT22;48848;39.002;-94.584;2022-10-16T03:58:49;18.40;44.20
62809;DHT22;48848;39.002;-94.584;2022-10-16T04:01:16;18.40;44.20
62809;DHT22;48848;39.002;-94.584;2022-10-16T04:03:42;18.40;44.50
62809;DHT22;48848;39.002;-94.584;2022-10-16T04:06:08;18.40;44.70
62809;DHT22;48848;39.002;-94.584;2022-10-16T04:08:34;18.40;44.90
62809;DHT22;48848;39.002;-94.584;2022-10-16T04:11:02;18.40;44.80
62809;DHT22;48848;39.002;-94.584;2022-10-16T04:13:29;18.40;45.00
62809;DHT22;48848;39.002;-94.584;2022-10-16T04:15:55;18.30;44.80
62809;DHT22;48848;39.002;-94.584;2022-10-16T04:18:21;18.30;44.90
62809;DHT22;48848;39.002;-94.584;2022-10-16T04:20:47;18.30;44.90
62809;DHT22;48848;39.002;-94.584;2022-10-16T04:23:13;18.30;44.70
62809;DHT22;48848;39.002;-94.584;2022-10-16T04:25:39;18.30;44.80
62809;DHT22;48848;39.002;-94.584;2022-10-16T04:28:06;18.30;45.10
62809;DHT22;48848;39.002;-94.584;2022-10-16T04:30:32;18.20;45.10
62809;DHT22;48848;39.002;-94.584;2022-10-16T04:32:59;18.20;45.20
62809;DHT22;48848;39.002;-94.584;2022-10-16T04:35:25;18.20;44.80
62809;DHT22;48848;39.002;-94.584;2022-10-16T04:37:51;18.20;45.00
62809;DHT22;48848;39.002;-94.584;2022-10-16T04:40:17;18.20;45.30
62809;DHT22;48848;39.002;-94.584;2022-10-16T04:42:44;18.20;45.40
62809;DHT22;48848;39.002;-94.584;2022-10-16T04:45:10;18.20;45.10
62809;DHT22;48848;39.002;-94.584;2022-10-16T04:47:37;18.20;45.40
62809;DHT22;48848;39.002;-94.584;2022-10-16T04:50:03;18.10;45.30
62809;DHT22;48848;39.002;-94.584;2022-10-16T04:52:30;18.20;45.50
62809;DHT22;48848;39.002;-94.584;2022-10-16T04:54:57;18.10;44.90
62809;DHT22;48848;39.002;-94.584;2022-10-16T04:57:27;18.20;45.20
62809;DHT22;48848;39.002;-94.584;2022-10-16T04:59:53;18.10;45.20
62809;DHT22;48848;39.002;-94.584;2022-10-16T05:02:19;18.10;45.40
62809;DHT22;48848;39.002;-94.584;2022-10-16T05:04:46;18.10;45.30
62809;DHT22;48848;39.002;-94.584;2022-10-16T05:07:12;18.10;45.40
62809;DHT22;48848;39.002;-94.584;2022-10-16T05:09:38;18.10;45.30
62809;DHT22;48848;39.002;-94.584;2022-10-16T05:12:04;18.10;45.50
62809;DHT22;48848;39.002;-94.584;2022-10-16T05:14:30;18.10;45.10
62809;DHT22;48848;39.002;-94.584;2022-10-16T05:16:56;18.10;45.20
62809;DHT22;48848;39.002;-94.584;2022-10-16T05:19:23;18.00;45.60
62809;DHT22;48848;39.002;-94.584;2022-10-16T05:21:49;18.00;45.00
62809;DHT22;48848;39.002;-94.584;2022-10-16T05:24:15;18.00;45.50
62809;DHT22;48848;39.002;-94.584;2022-10-16T05:26:41;18.00;45.50
62809;DHT22;48848;39.002;-94.584;2022-10-16T05:29:07;18.00;45.40
62809;DHT22;48848;39.002;-94.584;2022-10-16T05:31:34;18.00;45.30
62809;DHT22;48848;39.002;-94.584;2022-10-16T05:34:01;18.00;45.80
62809;DHT22;48848;39.002;-94.584;2022-10-16T05:36:28;18.00;45.70
62809;DHT22;48848;39.002;-94.584;2022-10-16T05:38:54;18.00;45.40
62809;DHT22;48848;39.002;-94.584;2022-10-16T05:41:20;18.00;45.40
62809;DHT22;48848;39.002;-94.584;2022-10-16T05:43:48;18.00;45.50
62809;DHT22;48848;39.002;-94.584;2022-10-16T05:46:14;17.90;45.60
62809;DHT22;48848;39.002;-94.584;2022-10-16T05:48:41;18.00;45.80
62809;DHT22;48848;39.002;-94.584;2022-10-16T05:51:09;17.90;45.80
62809;DHT22;48848;39.002;-94.584;2022-10-16T05:53:38;17.90;46.00
62809;DHT22;48848;39.002;-94.584;2022-10-16T05:56:05;17.90;45.90
62809;DHT22;48848;39.002;-94.584;2022-10-16T05:58:33;18.00;46.20
62809;DHT22;48848;39.002;-94.584;2022-10-16T06:01:03;17.90;46.30
62809;DHT22;48848;39.002;-94.584;2022-10-16T06:03:30;17.90;46.10
62809;DHT22;48848;39.002;-94.584;2022-10-16T06:05:56;17.90;46.00
62809;DHT22;48848;39.002;-94.584;2022-10-16T06:08:23;17.90;46.30
62809;DHT22;48848;39.002;-94.584;2022-10-16T06:11:03;17.90;46.20
62809;DHT22;48848;39.002;-94.584;2022-10-16T06:13:30;17.90;45.90
62809;DHT22;48848;39.002;-94.584;2022-10-16T06:15:58;17.90;46.30
62809;DHT22;48848;39.002;-94.584;2022-10-16T06:18:25;17.90;46.40
62809;DHT22;48848;39.002;-94.584;2022-10-16T06:20:52;17.80;46.40
62809;DHT22;48848;39.002;-94.584;2022-10-16T06:23:18;17.80;46.30
62809;DHT22;48848;39.002;-94.584;2022-10-16T06:25:44;17.80;46.40
62809;DHT22;48848;39.002;-94.584;2022-10-16T06:28:10;17.80;46.50
62809;DHT22;48848;39.002;-94.584;2022-10-16T06:30:36;17.80;46.10
62809;DHT22;48848;39.002;-94.584;2022-10-16T06:33:03;17.80;46.10
62809;DHT22;48848;39.002;-94.584;2022-10-16T06:35:29;17.80;46.50
62809;DHT22;48848;39.002;-94.584;2022-10-16T06:37:55;17.80;46.30
62809;DHT22;48848;39.002;-94.584;2022-10-16T06:40:21;17.70;46.40
62809;DHT22;48848;39.002;-94.584;2022-10-16T06:42:47;17.70;46.60
62809;DHT22;48848;39.002;-94.584;2022-10-16T06:45:13;17.70;46.90
62809;DHT22;48848;39.002;-94.584;2022-10-16T06:47:40;17.70;46.30
62809;DHT22;48848;39.002;-94.584;2022-10-16T06:50:06;17.70;46.70
62809;DHT22;48848;39.002;-94.584;2022-10-16T06:52:34;17.70;46.40
62809;DHT22;48848;39.002;-94.584;2022-10-16T06:55:00;17.70;46.60
62809;DHT22;48848;39.002;-94.584;2022-10-16T06:57:26;17.70;46.80
62809;DHT22;48848;39.002;-94.584;2022-10-16T06:59:53;17.70;46.50
62809;DHT22;48848;39.002;-94.584;2022-10-16T07:02:19;17.70;46.60
62809;DHT22;48848;39.002;-94.584;2022-10-16T07:04:45;17.70;47.00
62809;DHT22;48848;39.002;-94.584;2022-10-16T07:07:12;17.70;46.70
62809;DHT22;48848;39.002;-94.584;2022-10-16T07:09:38;17.60;46.60
62809;DHT22;48848;39.002;-94.584;2022-10-16T07:12:04;17.60;46.90
62809;DHT22;48848;39.002;-94.584;2022-10-16T07:14:30;17.60;46.50
62809;DHT22;48848;39.002;-94.584;2022-10-16T07:16:56;17.60;46.50
62809;DHT22;48848;39.002;-94.584;2022-10-16T07:19:22;17.60;47.40
62809;DHT22;48848;39.002;-94.584;2022-10-16T07:21:49;17.60;47.30
62809;DHT22;48848;39.002;-94.584;2022-10-16T07:24:16;17.60;47.00
62809;DHT22;48848;39.002;-94.584;2022-10-16T07:26:43;17.50;46.90
62809;DHT22;48848;39.002;-94.584;2022-10-16T07:29:15;17.60;47.60
62809;DHT22;48848;39.002;-94.584;2022-10-16T07:31:43;17.50;47.10
62809;DHT22;48848;39.002;-94.584;2022-10-16T07:34:11;17.50;47.60
62809;DHT22;48848;39.002;-94.584;2022-10-16T07:36:37;17.50;47.60
62809;DHT22;48848;39.002;-94.584;2022-10-16T07:39:03;17.50;47.40
62809;DHT22;48848;39.002;-94.584;2022-10-16T07:41:30;17.50;47.70
62809;DHT22;48848;39.002;-94.584;2022-10-16T07:43:58;17.50;47.80
62809;DHT22;48848;39.002;-94.584;2022-10-16T07:46:28;17.40;47.20
62809;DHT22;48848;39.002;-94.584;2022-10-16T07:48:55;17.40;47.90
62809;DHT22;48848;39.002;-94.584;2022-10-16T07:51:23;17.40;47.90
62809;DHT22;48848;39.002;-94.584;2022-10-16T07:53:50;17.40;47.60
62809;DHT22;48848;39.002;-94.584;2022-10-16T07:56:18;17.40;47.80
62809;DHT22;48848;39.002;-94.584;2022-10-16T07:58:44;17.40;48.10
62809;DHT22;48848;39.002;-94.584;2022-10-16T08:01:13;17.40;47.40
62809;DHT22;48848;39.002;-94.584;2022-10-16T08:03:47;17.40;48.20
62809;DHT22;48848;39.002;-94.584;2022-10-16T08:06:14;17.30;48.00
62809;DHT22;48848;39.002;-94.584;2022-10-16T08:08:41;17.30;48.10
62809;DHT22;48848;39.002;-94.584;2022-10-16T08:11:07;17.30;48.30
62809;DHT22;48848;39.002;-94.584;2022-10-16T08:13:34;17.30;48.10
62809;DHT22;48848;39.002;-94.584;2022-10-16T08:16:00;17.30;48.30
62809;DHT22;48848;39.002;-94.584;2022-10-16T08:18:27;17.30;48.10
62809;DHT22;48848;39.002;-94.584;2022-10-16T08:20:58;17.30;47.70
62809;DHT22;48848;39.002;-94.584;2022-10-16T08:23:26;17.30;48.00
62809;DHT22;48848;39.002;-94.584;2022-10-16T08:25:56;17.30;47.80
62809;DHT22;48848;39.002;-94.584;2022-10-16T08:28:27;17.20;48.40
62809;DHT22;48848;39.002;-94.584;2022-10-16T08:30:54;17.30;47.40
62809;DHT22;48848;39.002;-94.584;2022-10-16T08:33:22;17.20;48.50
62809;DHT22;48848;39.002;-94.584;2022-10-16T08:35:52;17.20;48.60
62809;DHT22;48848;39.002;-94.584;2022-10-16T08:38:19;17.20;48.70
62809;DHT22;48848;39.002;-94.584;2022-10-16T08:40:46;17.20;48.60
62809;DHT22;48848;39.002;-94.584;2022-10-16T08:48:52;17.20;48.70
62809;DHT22;48848;39.002;-94.584;2022-10-16T08:51:34;17.10;48.80
62809;DHT22;48848;39.002;-94.584;2022-10-16T08:54:23;17.10;48.80
62809;DHT22;48848;39.002;-94.584;2022-10-16T08:56:55;17.10;48.00
62809;DHT22;48848;39.002;-94.584;2022-10-16T08:59:22;17.10;48.00
62809;DHT22;48848;39.002;-94.584;2022-10-16T09:01:50;17.10;48.80
62809;DHT22;48848;39.002;-94.584;2022-10-16T09:07:41;17.10;48.70
62809;DHT22;48848;39.002;-94.584;2022-10-16T09:13:39;17.10;48.90
62809;DHT22;48848;39.002;-94.584;2022-10-16T09:21:35;17.10;47.90
62809;DHT22;48848;39.002;-94.584;2022-10-16T09:24:17;17.10;48.40
62809;DHT22;48848;39.002;-94.584;2022-10-16T09:26:45;17.10;48.50
62809;DHT22;48848;39.002;-94.584;2022-10-16T09:29:15;17.10;49.00
62809;DHT22;48848;39.002;-94.584;2022-10-16T09:31:42;17.00;48.00
62809;DHT22;48848;39.002;-94.584;2022-10-16T09:36:53;17.00;48.40
62809;DHT22;48848;39.002;-94.584;2022-10-16T09:39:21;17.00;48.40
62809;DHT22;48848;39.002;-94.584;2022-10-16T09:41:47;17.00;49.00
62809;DHT22;48848;39.002;-94.584;2022-10-16T09:46:46;17.00;48.00
62809;DHT22;48848;39.002;-94.584;2022-10-16T09:49:23;17.00;48.00
62809;DHT22;48848;39.002;-94.584;2022-10-16T09:51:51;16.90;49.00
62809;DHT22;48848;39.002;-94.584;2022-10-16T09:54:28;16.90;49.00
62809;DHT22;48848;39.002;-94.584;2022-10-16T09:57:05;16.90;48.80
62809;DHT22;48848;39.002;-94.584;2022-10-16T09:59:31;16.90;49.00
62809;DHT22;48848;39.002;-94.584;2022-10-16T10:02:02;16.90;48.50
62809;DHT22;48848;39.002;-94.584;2022-10-16T10:04:40;16.90;47.90
62809;DHT22;48848;39.002;-94.584;2022-10-16T10:07:20;16.90;48.60
62809;DHT22;48848;39.002;-94.584;2022-10-16T10:09:47;16.90;47.90
62809;DHT22;48848;39.002;-94.584;2022-10-16T10:12:25;16.90;47.50
62809;DHT22;48848;39.002;-94.584;2022-10-16T10:15:02;16.90;48.80
62809;DHT22;48848;39.002;-94.584;2022-10-16T10:17:30;16.90;49.00
62809;DHT22;48848;39.002;-94.584;2022-10-16T10:20:43;16.90;48.70
62809;DHT22;48848;39.002;-94.584;2022-10-16T10:22:45;16.90;48.20
62809;DHT22;48848;39.002;-94.584;2022-10-16T10:30:52;16.90;48.20
62809;DHT22;48848;39.002;-94.584;2022-10-16T10:47:07;16.80;49.40
62809;DHT22;48848;39.002;-94.584;2022-10-16T10:59:06;16.70;48.50
62809;DHT22;48848;39.002;-94.584;2022-10-16T11:01:45;16.70;48.60
62809;DHT22;48848;39.002;-94.584;2022-10-16T11:04:27;16.70;48.30
62809;DHT22;48848;39.002;-94.584;2022-10-16T11:07:04;16.70;48.40
62809;DHT22;48848;39.002;-94.584;2022-10-16T11:09:41;16.70;49.20
62809;DHT22;48848;39.002;-94.584;2022-10-16T11:12:28;16.70;48.70
62809;DHT22;48848;39.002;-94.584;2022-10-16T11:15:03;16.70;48.50
62809;DHT22;48848;39.002;-94.584;2022-10-16T11:17:43;16.60;48.50
62809;DHT22;48848;39.002;-94.584;2022-10-16T11:20:24;16.70;48.00
62809;DHT22;48848;39.002;-94.584;2022-10-16T11:23:26;16.60;48.70
62809;DHT22;48848;39.002;-94.584;2022-10-16T11:25:45;16.60;48.60
62809;DHT22;48848;39.002;-94.584;2022-10-16T11:28:33;16.60;48.50
62809;DHT22;48848;39.002;-94.584;2022-10-16T11:34:22;16.60;48.90
62809;DHT22;48848;39.002;-94.584;2022-10-16T11:36:57;16.50;48.80
62809;DHT22;48848;39.002;-94.584;2022-10-16T11:39:27;16.50;48.80
62809;DHT22;48848;39.002;-94.584;2022-10-16T11:42:10;16.50;48.80
62809;DHT22;48848;39.002;-94.584;2022-10-16T11:47:35;16.50;49.50
62809;DHT22;48848;39.002;-94.584;2022-10-16T11:53:11;16.50;49.00
62809;DHT22;48848;39.002;-94.584;2022-10-16T11:55:41;16.50;48.50
62809;DHT22;48848;39.002;-94.584;2022-10-16T11:58:41;16.50;49.00
62809;DHT22;48848;39.002;-94.584;2022-10-16T12:01:36;16.40;49.10
62809;DHT22;48848;39.002;-94.584;2022-10-16T12:07:32;16.40;49.20
62809;DHT22;48848;39.002;-94.584;2022-10-16T12:09:58;16.30;48.80
62809;DHT22;48848;39.002;-94.584;2022-10-16T12:17:38;16.30;48.80
62809;DHT22;48848;39.002;-94.584;2022-10-16T12:20:26;16.30;49.20
62809;DHT22;48848;39.002;-94.584;2022-10-16T12:23:01;16.30;48.90
62809;DHT22;48848;39.002;-94.584;2022-10-16T12:25:34;16.30;48.80
62809;DHT22;48848;39.002;-94.584;2022-10-16T12:28:05;16.30;49.10
62809;DHT22;48848;39.002;-94.584;2022-10-16T12:30:36;16.20;48.90
62809;DHT22;48848;39.002;-94.584;2022-10-16T12:33:20;16.20;49.20
62809;DHT22;48848;39.002;-94.584;2022-10-16T12:35:47;16.20;49.70
62809;DHT22;48848;39.002;-94.584;2022-10-16T12:38:58;16.20;49.60
62809;DHT22;48848;39.002;-94.584;2022-10-16T12:41:06;16.20;49.50
62809;DHT22;48848;39.002;-94.584;2022-10-16T12:43:47;16.20;49.50
62809;DHT22;48848;39.002;-94.584;2022-10-16T12:48:42;16.20;49.70
62809;DHT22;48848;39.002;-94.584;2022-10-16T12:54:17;16.10;49.30
62809;DHT22;48848;39.002;-94.584;2022-10-16T12:56:52;16.10;49.90
62809;DHT22;48848;39.002;-94.584;2022-10-16T13:11:18;16.00;50.20
62809;DHT22;48848;39.002;-94.584;2022-10-16T13:20:06;16.00;49.70
62809;DHT22;48848;39.002;-94.584;2022-10-16T13:25:46;16.00;50.50
62809;DHT22;48848;39.002;-94.584;2022-10-16T13:28:17;16.00;50.50
62809;DHT22;48848;39.002;-94.584;2022-10-16T13:30:57;16.00;50.50
62809;DHT22;48848;39.002;-94.584;2022-10-16T13:33:34;16.00;50.50
62809;DHT22;48848;39.002;-94.584;2022-10-16T13:36:01;15.90;51.60
62809;DHT22;48848;39.002;-94.584;2022-10-16T13:38:33;15.90;50.30
62809;DHT22;48848;39.002;-94.584;2022-10-16T13:41:02;16.00;49.90
62809;DHT22;48848;39.002;-94.584;2022-10-16T13:43:40;16.00;50.00
62809;DHT22;48848;39.002;-94.584;2022-10-16T13:46:15;16.00;50.20
62809;DHT22;48848;39.002;-94.584;2022-10-16T13:48:42;16.00;49.70
62809;DHT22;48848;39.002;-94.584;2022-10-16T13:51:17;16.00;50.20
62809;DHT22;48848;39.002;-94.584;2022-10-16T13:53:45;16.00;49.90
62809;DHT22;48848;39.002;-94.584;2022-10-16T13:56:17;16.00;50.00
62809;DHT22;48848;39.002;-94.584;2022-10-16T13:58:44;16.00;50.30
62809;DHT22;48848;39.002;-94.584;2022-10-16T14:03:46;16.00;50.40
62809;DHT22;48848;39.002;-94.584;2022-10-16T14:06:16;16.00;50.20
62809;DHT22;48848;39.002;-94.584;2022-10-16T14:08:46;16.00;49.80
62809;DHT22;48848;39.002;-94.584;2022-10-16T14:11:21;16.00;49.40
62809;DHT22;48848;39.002;-94.584;2022-10-16T14:13:50;16.00;49.80
62809;DHT22;48848;39.002;-94.584;2022-10-16T14:16:22;16.00;49.80
62809;DHT22;48848;39.002;-94.584;2022-10-16T14:19:02;16.00;50.10
62809;DHT22;48848;39.002;-94.584;2022-10-16T14:21:29;16.00;49.80
62809;DHT22;48848;39.002;-94.584;2022-10-16T14:23:56;16.00;49.50
62809;DHT22;48848;39.002;-94.584;2022-10-16T14:26:26;16.00;50.10
62809;DHT22;48848;39.002;-94.584;2022-10-16T14:29:12;16.00;50.10
62809;DHT22;48848;39.002;-94.584;2022-10-16T14:31:39;16.00;50.30
62809;DHT22;48848;39.002;-94.584;2022-10-16T14:34:38;16.00;50.20
62809;DHT22;48848;39.002;-94.584;2022-10-16T14:37:32;16.00;50.00
62809;DHT22;48848;39.002;-94.584;2022-10-16T14:39:58;16.00;50.00
62809;DHT22;48848;39.002;-94.584;2022-10-16T14:42:25;16.00;49.90
62809;DHT22;48848;39.002;-94.584;2022-10-16T14:44:53;16.00;50.10
62809;DHT22;48848;39.002;-94.584;2022-10-16T14:47:22;16.10;50.00
62809;DHT22;48848;39.002;-94.584;2022-10-16T14:49:52;16.00;49.80
62809;DHT22;48848;39.002;-94.584;2022-10-16T14:52:21;16.00;49.70
62809;DHT22;48848;39.002;-94.584;2022-10-16T14:54:50;16.00;49.70
62809;DHT22;48848;39.002;-94.584;2022-10-16T14:57:23;16.10;50.00
62809;DHT22;48848;39.002;-94.584;2022-10-16T14:59:50;16.10;49.90
62809;DHT22;48848;39.002;-94.584;2022-10-16T15:02:31;16.00;50.00
62809;DHT22;48848;39.002;-94.584;2022-10-16T15:05:01;16.10;49.70
62809;DHT22;48848;39.002;-94.584;2022-10-16T15:07:31;16.10;49.60
62809;DHT22;48848;39.002;-94.584;2022-10-16T15:09:57;16.00;49.70
62809;DHT22;48848;39.002;-94.584;2022-10-16T15:12:24;16.10;49.30
62809;DHT22;48848;39.002;-94.584;2022-10-16T15:14:50;16.00;50.50
62809;DHT22;48848;39.002;-94.584;2022-10-16T15:17:16;16.10;49.70
62809;DHT22;48848;39.002;-94.584;2022-10-16T15:19:42;16.10;50.00
62809;DHT22;48848;39.002;-94.584;2022-10-16T15:22:11;16.00;49.50
62809;DHT22;48848;39.002;-94.584;2022-10-16T15:24:37;16.10;49.70
62809;DHT22;48848;39.002;-94.584;2022-10-16T15:27:04;16.10;49.80
62809;DHT22;48848;39.002;-94.584;2022-10-16T15:29:30;16.10;49.40
62809;DHT22;48848;39.002;-94.584;2022-10-16T15:31:56;16.10;49.50
62809;DHT22;48848;39.002;-94.584;2022-10-16T15:34:22;16.10;49.60
62809;DHT22;48848;39.002;-94.584;2022-10-16T15:36:49;16.10;49.50
62809;DHT22;48848;39.002;-94.584;2022-10-16T15:39:17;16.10;49.30
62809;DHT22;48848;39.002;-94.584;2022-10-16T15:41:45;16.10;49.30
62809;DHT22;48848;39.002;-94.584;2022-10-16T15:44:20;16.20;49.20
62809;DHT22;48848;39.002;-94.584;2022-10-16T15:46:49;16.20;49.00
62809;DHT22;48848;39.002;-94.584;2022-10-16T15:49:15;16.20;49.40
62809;DHT22;48848;39.002;-94.584;2022-10-16T15:51:42;16.20;49.60
62809;DHT22;48848;39.002;-94.584;2022-10-16T15:54:08;16.20;49.00
62809;DHT22;48848;39.002;-94.584;2022-10-16T15:56:35;16.20;48.90
62809;DHT22;48848;39.002;-94.584;2022-10-16T15:59:03;16.20;49.10
62809;DHT22;48848;39.002;-94.584;2022-10-16T16:01:33;16.30;49.00
62809;DHT22;48848;39.002;-94.584;2022-10-16T16:03:59;16.30;49.10
62809;DHT22;48848;39.002;-94.584;2022-10-16T16:06:26;16.30;49.00
62809;DHT22;48848;39.002;-94.584;2022-10-16T16:08:52;16.30;48.80
62809;DHT22;48848;39.002;-94.584;2022-10-16T16:11:19;16.40;48.90
62809;DHT22;48848;39.002;-94.584;2022-10-16T16:13:46;16.40;48.80
62809;DHT22;48848;39.002;-94.584;2022-10-16T16:16:14;16.50;48.80
62809;DHT22;48848;39.002;-94.584;2022-10-16T16:18:41;16.40;48.40
62809;DHT22;48848;39.002;-94.584;2022-10-16T16:21:09;16.50;48.30
62809;DHT22;48848;39.002;-94.584;2022-10-16T16:23:35;16.50;47.90
62809;DHT22;48848;39.002;-94.584;2022-10-16T16:28:36;16.60;48.10
62809;DHT22;48848;39.002;-94.584;2022-10-16T16:31:02;16.60;48.10
62809;DHT22;48848;39.002;-94.584;2022-10-16T16:33:29;16.60;47.10
62809;DHT22;48848;39.002;-94.584;2022-10-16T16:36:01;16.60;47.40
62809;DHT22;48848;39.002;-94.584;2022-10-16T16:38:28;16.70;47.10
62809;DHT22;48848;39.002;-94.584;2022-10-16T16:40:54;16.70;47.10
62809;DHT22;48848;39.002;-94.584;2022-10-16T16:43:27;16.70;48.20
62809;DHT22;48848;39.002;-94.584;2022-10-16T16:45:54;16.70;47.20
62809;DHT22;48848;39.002;-94.584;2022-10-16T16:48:21;16.70;47.00
62809;DHT22;48848;39.002;-94.584;2022-10-16T16:50:47;16.80;46.80
62809;DHT22;48848;39.002;-94.584;2022-10-16T16:53:13;16.80;46.80
62809;DHT22;48848;39.002;-94.584;2022-10-16T16:55:39;16.80;46.90
62809;DHT22;48848;39.002;-94.584;2022-10-16T16:58:06;16.80;46.90
62809;DHT22;48848;39.002;-94.584;2022-10-16T17:00:32;16.90;47.00
62809;DHT22;48848;39.002;-94.584;2022-10-16T17:02:58;16.80;46.70
62809;DHT22;48848;39.002;-94.584;2022-10-16T17:05:24;16.90;46.80
62809;DHT22;48848;39.002;-94.584;2022-10-16T17:07:51;16.90;46.70
62809;DHT22;48848;39.002;-94.584;2022-10-16T17:10:17;16.90;46.70
62809;DHT22;48848;39.002;-94.584;2022-10-16T17:12:43;16.90;46.50
62809;DHT22;48848;39.002;-94.584;2022-10-16T17:15:10;17.00;46.60
62809;DHT22;48848;39.002;-94.584;2022-10-16T17:17:36;17.00;46.40
62809;DHT22;48848;39.002;-94.584;2022-10-16T17:20:02;17.00;46.00